Startpagina
METAR-TAF:

METAR-TAF

Vliegvelden :

Saint-Dizier, Frankrijk

breedte: 48-38N, lengte: 004-54E, hoogte: 139 m

Actueel weer

Dit bericht is 17 minuten geleden gemaakt, om 13:30 UTC
Wind 7 kt uit het oostnoordoosten, variërend tussen het noordnoordoosten en het zuiden
Temperatuur 25°C
Vochtigheid 26%
Druk 1021 hPa
Zicht 10 km of meer
geen wolken onder 1500 m en geen cumulonimbus

METAR: LFSI 101330Z AUTO 07007KT 020V170 CAVOK 25/04 Q1021

Tijdstip: 15:47 (13:47 UTC)

Verwachting

Dit bericht is 5 uur en het 47 minuten geleden gemaakt, om 08:00 UTC
Verwachting geldig van 10 om 09 UTC tot 11 om 09 UTC
Wind 3 kt uit variabele richting
Zicht 10 km of meer
geen wolken onder 1500 m en geen cumulonimbus

TAF: LFSI 100800Z 1009/1109 VRB03KT CAVOK

Waarnemingen en weersverwachtingen van meer dan 4000 vliegvelden (METAR en TAF).

De beschikbare stations zijn de gele en rode punten op de kaart.

Ga met uw muis naar het station om de naam te zien.

Klik dan om waarnemingen en weersverwachtingen te zien.

kaart wijzigen: klik op de groene knoppen met een zwart kruis om in te zoomen, op de groene knop met een streepje om uit te zoomen of op de groene pijlen voor aangrenzende kaarten.


METAR-TAF: